sensor_id;sensor_type;location;lat;lon;timestamp;P1;durP1;ratioP1;P2;durP2;ratioP2
17365;SDS011;8800;50.118;9.900;2023-06-14T00:01:57;6.88;;;4.32;;
17365;SDS011;8800;50.118;9.900;2023-06-14T00:04:23;8.20;;;4.70;;
17365;SDS011;8800;50.118;9.900;2023-06-14T00:06:50;7.05;;;4.70;;
17365;SDS011;8800;50.118;9.900;2023-06-14T00:09:17;7.05;;;4.25;;
17365;SDS011;8800;50.118;9.900;2023-06-14T00:11:44;8.85;;;4.43;;
17365;SDS011;8800;50.118;9.900;2023-06-14T00:14:10;7.53;;;4.20;;
17365;SDS011;8800;50.118;9.900;2023-06-14T00:16:39;7.88;;;4.50;;
17365;SDS011;8800;50.118;9.900;2023-06-14T00:19:07;9.63;;;4.22;;
17365;SDS011;8800;50.118;9.900;2023-06-14T00:21:35;8.63;;;4.07;;
17365;SDS011;8800;50.118;9.900;2023-06-14T00:24:02;8.00;;;4.28;;
17365;SDS011;8800;50.118;9.900;2023-06-14T00:26:28;11.52;;;4.15;;
17365;SDS011;8800;50.118;9.900;2023-06-14T00:28:55;8.95;;;4.10;;
17365;SDS011;8800;50.118;9.900;2023-06-14T00:31:22;5.80;;;3.85;;
17365;SDS011;8800;50.118;9.900;2023-06-14T00:33:50;9.43;;;3.90;;
17365;SDS011;8800;50.118;9.900;2023-06-14T00:36:17;6.97;;;3.83;;
17365;SDS011;8800;50.118;9.900;2023-06-14T00:38:43;8.13;;;4.03;;
17365;SDS011;8800;50.118;9.900;2023-06-14T00:41:10;5.60;;;3.97;;
17365;SDS011;8800;50.118;9.900;2023-06-14T00:43:37;4.75;;;3.70;;
17365;SDS011;8800;50.118;9.900;2023-06-14T00:46:03;7.45;;;4.07;;
17365;SDS011;8800;50.118;9.900;2023-06-14T00:48:30;6.57;;;4.60;;
17365;SDS011;8800;50.118;9.900;2023-06-14T00:50:58;9.80;;;4.65;;
17365;SDS011;8800;50.118;9.900;2023-06-14T00:53:29;6.97;;;4.65;;
17365;SDS011;8800;50.118;9.900;2023-06-14T00:55:56;9.10;;;4.00;;
17365;SDS011;8800;50.118;9.900;2023-06-14T00:58:23;6.97;;;3.95;;
17365;SDS011;8800;50.118;9.900;2023-06-14T01:00:49;7.43;;;4.20;;
17365;SDS011;8800;50.118;9.900;2023-06-14T01:03:16;8.35;;;4.68;;
17365;SDS011;8800;50.118;9.900;2023-06-14T01:05:47;8.57;;;4.75;;
17365;SDS011;8800;50.118;9.900;2023-06-14T01:08:18;9.07;;;4.30;;
17365;SDS011;8800;50.118;9.900;2023-06-14T01:10:51;7.80;;;4.32;;
17365;SDS011;8800;50.118;9.900;2023-06-14T01:13:20;5.35;;;4.20;;
17365;SDS011;8800;50.118;9.900;2023-06-14T01:15:46;9.68;;;4.60;;
17365;SDS011;8800;50.118;9.900;2023-06-14T01:18:13;8.55;;;4.25;;
17365;SDS011;8800;50.118;9.900;2023-06-14T01:20:42;7.88;;;4.47;;
17365;SDS011;8800;50.118;9.900;2023-06-14T01:23:11;7.03;;;4.38;;
17365;SDS011;8800;50.118;9.900;2023-06-14T01:25:38;7.07;;;4.30;;
17365;SDS011;8800;50.118;9.900;2023-06-14T01:28:06;6.00;;;4.47;;
17365;SDS011;8800;50.118;9.900;2023-06-14T01:30:35;10.48;;;4.85;;
17365;SDS011;8800;50.118;9.900;2023-06-14T01:33:02;8.65;;;4.65;;
17365;SDS011;8800;50.118;9.900;2023-06-14T01:35:29;7.75;;;4.47;;
17365;SDS011;8800;50.118;9.900;2023-06-14T01:37:56;8.38;;;4.40;;
17365;SDS011;8800;50.118;9.900;2023-06-14T01:40:24;11.25;;;4.68;;
17365;SDS011;8800;50.118;9.900;2023-06-14T01:42:51;8.38;;;3.95;;
17365;SDS011;8800;50.118;9.900;2023-06-14T01:45:18;7.05;;;4.40;;
17365;SDS011;8800;50.118;9.900;2023-06-14T01:47:45;10.43;;;4.20;;
17365;SDS011;8800;50.118;9.900;2023-06-14T01:50:12;5.63;;;4.32;;
17365;SDS011;8800;50.118;9.900;2023-06-14T01:52:38;5.57;;;3.85;;
17365;SDS011;8800;50.118;9.900;2023-06-14T01:55:05;7.85;;;4.65;;
17365;SDS011;8800;50.118;9.900;2023-06-14T01:57:34;8.70;;;4.03;;
17365;SDS011;8800;50.118;9.900;2023-06-14T02:00:01;7.80;;;4.28;;
17365;SDS011;8800;50.118;9.900;2023-06-14T02:02:29;8.05;;;4.22;;
17365;SDS011;8800;50.118;9.900;2023-06-14T02:04:55;7.03;;;4.35;;
17365;SDS011;8800;50.118;9.900;2023-06-14T02:07:22;6.00;;;4.47;;
17365;SDS011;8800;50.118;9.900;2023-06-14T02:09:48;8.38;;;4.45;;
17365;SDS011;8800;50.118;9.900;2023-06-14T02:12:15;9.07;;;4.93;;
17365;SDS011;8800;50.118;9.900;2023-06-14T02:14:43;9.40;;;4.40;;
17365;SDS011;8800;50.118;9.900;2023-06-14T02:17:09;9.05;;;4.72;;
17365;SDS011;8800;50.118;9.900;2023-06-14T02:19:36;6.38;;;4.53;;
17365;SDS011;8800;50.118;9.900;2023-06-14T02:22:04;10.00;;;5.18;;
17365;SDS011;8800;50.118;9.900;2023-06-14T02:24:30;5.93;;;4.15;;
17365;SDS011;8800;50.118;9.900;2023-06-14T02:26:56;9.57;;;4.75;;
17365;SDS011;8800;50.118;9.900;2023-06-14T02:29:23;7.80;;;4.68;;
17365;SDS011;8800;50.118;9.900;2023-06-14T02:31:50;7.55;;;4.32;;
17365;SDS011;8800;50.118;9.900;2023-06-14T02:34:17;6.72;;;4.40;;
17365;SDS011;8800;50.118;9.900;2023-06-14T02:36:44;6.45;;;4.47;;
17365;SDS011;8800;50.118;9.900;2023-06-14T02:39:12;6.07;;;4.13;;
17365;SDS011;8800;50.118;9.900;2023-06-14T02:41:39;7.45;;;4.40;;
17365;SDS011;8800;50.118;9.900;2023-06-14T02:44:05;8.38;;;4.38;;
17365;SDS011;8800;50.118;9.900;2023-06-14T02:46:32;8.18;;;4.35;;
17365;SDS011;8800;50.118;9.900;2023-06-14T02:49:00;7.45;;;4.45;;
17365;SDS011;8800;50.118;9.900;2023-06-14T02:51:26;5.55;;;4.00;;
17365;SDS011;8800;50.118;9.900;2023-06-14T02:53:52;11.20;;;5.00;;
17365;SDS011;8800;50.118;9.900;2023-06-14T02:56:19;6.20;;;4.15;;
17365;SDS011;8800;50.118;9.900;2023-06-14T02:58:47;8.55;;;4.13;;
17365;SDS011;8800;50.118;9.900;2023-06-14T03:01:14;8.82;;;4.53;;
17365;SDS011;8800;50.118;9.900;2023-06-14T03:03:41;8.32;;;4.47;;
17365;SDS011;8800;50.118;9.900;2023-06-14T03:06:09;6.75;;;4.28;;
17365;SDS011;8800;50.118;9.900;2023-06-14T03:08:38;7.50;;;4.68;;
17365;SDS011;8800;50.118;9.900;2023-06-14T03:11:06;6.30;;;4.43;;
17365;SDS011;8800;50.118;9.900;2023-06-14T03:13:33;7.43;;;4.50;;
17365;SDS011;8800;50.118;9.900;2023-06-14T03:16:00;6.00;;;4.40;;
17365;SDS011;8800;50.118;9.900;2023-06-14T03:18:27;7.35;;;4.47;;
17365;SDS011;8800;50.118;9.900;2023-06-14T03:20:54;6.00;;;4.70;;
17365;SDS011;8800;50.118;9.900;2023-06-14T03:23:23;9.77;;;4.28;;
17365;SDS011;8800;50.118;9.900;2023-06-14T03:25:50;7.53;;;4.70;;
17365;SDS011;8800;50.118;9.900;2023-06-14T03:28:16;7.68;;;4.80;;
17365;SDS011;8800;50.118;9.900;2023-06-14T03:30:43;7.30;;;3.80;;
17365;SDS011;8800;50.118;9.900;2023-06-14T03:33:09;7.82;;;4.60;;
17365;SDS011;8800;50.118;9.900;2023-06-14T03:35:35;8.35;;;4.28;;
17365;SDS011;8800;50.118;9.900;2023-06-14T03:38:02;7.47;;;4.32;;
17365;SDS011;8800;50.118;9.900;2023-06-14T03:40:30;9.82;;;4.35;;
17365;SDS011;8800;50.118;9.900;2023-06-14T03:42:56;8.60;;;4.20;;
17365;SDS011;8800;50.118;9.900;2023-06-14T03:45:23;5.72;;;4.35;;
17365;SDS011;8800;50.118;9.900;2023-06-14T03:47:49;10.35;;;4.88;;
17365;SDS011;8800;50.118;9.900;2023-06-14T03:50:16;8.35;;;4.10;;
17365;SDS011;8800;50.118;9.900;2023-06-14T03:52:43;8.88;;;4.50;;
17365;SDS011;8800;50.118;9.900;2023-06-14T03:55:09;7.45;;;4.80;;
17365;SDS011;8800;50.118;9.900;2023-06-14T03:57:39;6.25;;;4.18;;
17365;SDS011;8800;50.118;9.900;2023-06-14T04:00:07;9.75;;;4.85;;
17365;SDS011;8800;50.118;9.900;2023-06-14T04:02:34;8.60;;;4.20;;
17365;SDS011;8800;50.118;9.900;2023-06-14T04:05:01;8.65;;;4.75;;
17365;SDS011;8800;50.118;9.900;2023-06-14T04:07:27;7.57;;;4.38;;
17365;SDS011;8800;50.118;9.900;2023-06-14T04:09:55;8.63;;;4.07;;
17365;SDS011;8800;50.118;9.900;2023-06-14T04:12:21;6.10;;;4.13;;
17365;SDS011;8800;50.118;9.900;2023-06-14T04:14:49;10.43;;;4.50;;
17365;SDS011;8800;50.118;9.900;2023-06-14T04:17:16;7.07;;;4.30;;
17365;SDS011;8800;50.118;9.900;2023-06-14T04:19:42;9.63;;;4.57;;
17365;SDS011;8800;50.118;9.900;2023-06-14T04:22:08;7.47;;;4.43;;
17365;SDS011;8800;50.118;9.900;2023-06-14T04:24:36;6.47;;;4.32;;
17365;SDS011;8800;50.118;9.900;2023-06-14T04:27:02;6.43;;;4.43;;
17365;SDS011;8800;50.118;9.900;2023-06-14T04:29:29;7.13;;;4.50;;
17365;SDS011;8800;50.118;9.900;2023-06-14T04:31:57;7.72;;;4.43;;
17365;SDS011;8800;50.118;9.900;2023-06-14T04:34:25;8.57;;;4.05;;
17365;SDS011;8800;50.118;9.900;2023-06-14T04:36:55;6.80;;;4.55;;
17365;SDS011;8800;50.118;9.900;2023-06-14T04:39:21;10.40;;;4.60;;
17365;SDS011;8800;50.118;9.900;2023-06-14T04:41:48;6.85;;;4.22;;
17365;SDS011;8800;50.118;9.900;2023-06-14T04:44:17;5.57;;;3.72;;
17365;SDS011;8800;50.118;9.900;2023-06-14T04:46:44;7.65;;;4.25;;
17365;SDS011;8800;50.118;9.900;2023-06-14T04:49:14;6.70;;;4.05;;
17365;SDS011;8800;50.118;9.900;2023-06-14T04:51:40;8.40;;;4.30;;
17365;SDS011;8800;50.118;9.900;2023-06-14T04:54:07;7.07;;;4.18;;
17365;SDS011;8800;50.118;9.900;2023-06-14T04:56:35;6.50;;;3.78;;
17365;SDS011;8800;50.118;9.900;2023-06-14T04:59:02;8.65;;;3.90;;
17365;SDS011;8800;50.118;9.900;2023-06-14T05:01:29;8.23;;;3.80;;
17365;SDS011;8800;50.118;9.900;2023-06-14T05:03:56;6.68;;;3.50;;
17365;SDS011;8800;50.118;9.900;2023-06-14T05:06:24;9.80;;;3.70;;
17365;SDS011;8800;50.118;9.900;2023-06-14T05:08:51;6.35;;;3.15;;
17365;SDS011;8800;50.118;9.900;2023-06-14T05:11:18;6.60;;;3.70;;
17365;SDS011;8800;50.118;9.900;2023-06-14T05:13:44;7.10;;;3.22;;
17365;SDS011;8800;50.118;9.900;2023-06-14T05:16:11;4.60;;;3.03;;
17365;SDS011;8800;50.118;9.900;2023-06-14T05:18:40;8.65;;;3.22;;
17365;SDS011;8800;50.118;9.900;2023-06-14T05:21:07;5.60;;;3.03;;
17365;SDS011;8800;50.118;9.900;2023-06-14T05:23:35;6.38;;;3.05;;
17365;SDS011;8800;50.118;9.900;2023-06-14T05:26:02;7.88;;;3.22;;
17365;SDS011;8800;50.118;9.900;2023-06-14T05:28:30;7.22;;;3.45;;
17365;SDS011;8800;50.118;9.900;2023-06-14T05:30:57;8.18;;;3.38;;
17365;SDS011;8800;50.118;9.900;2023-06-14T05:33:23;6.00;;;3.38;;
17365;SDS011;8800;50.118;9.900;2023-06-14T05:35:50;5.13;;;3.08;;
17365;SDS011;8800;50.118;9.900;2023-06-14T05:38:16;5.15;;;3.10;;
17365;SDS011;8800;50.118;9.900;2023-06-14T05:40:44;7.20;;;3.10;;
17365;SDS011;8800;50.118;9.900;2023-06-14T05:43:11;6.07;;;3.22;;
17365;SDS011;8800;50.118;9.900;2023-06-14T05:45:37;5.43;;;3.25;;
17365;SDS011;8800;50.118;9.900;2023-06-14T05:48:05;7.57;;;3.53;;
17365;SDS011;8800;50.118;9.900;2023-06-14T05:50:31;6.55;;;3.25;;
17365;SDS011;8800;50.118;9.900;2023-06-14T05:52:59;6.25;;;3.40;;
17365;SDS011;8800;50.118;9.900;2023-06-14T05:55:25;4.38;;;3.20;;
17365;SDS011;8800;50.118;9.900;2023-06-14T05:57:54;6.93;;;3.05;;
17365;SDS011;8800;50.118;9.900;2023-06-14T06:00:21;4.85;;;2.97;;
17365;SDS011;8800;50.118;9.900;2023-06-14T06:02:47;6.10;;;2.92;;
17365;SDS011;8800;50.118;9.900;2023-06-14T06:05:14;6.40;;;2.97;;
17365;SDS011;8800;50.118;9.900;2023-06-14T06:07:41;3.38;;;2.70;;
17365;SDS011;8800;50.118;9.900;2023-06-14T06:10:09;5.03;;;3.03;;
17365;SDS011;8800;50.118;9.900;2023-06-14T06:12:36;5.28;;;2.75;;
17365;SDS011;8800;50.118;9.900;2023-06-14T06:15:05;7.72;;;2.85;;
17365;SDS011;8800;50.118;9.900;2023-06-14T06:17:32;3.50;;;2.97;;
17365;SDS011;8800;50.118;9.900;2023-06-14T06:19:59;4.30;;;2.58;;
17365;SDS011;8800;50.118;9.900;2023-06-14T06:22:25;6.22;;;3.05;;
17365;SDS011;8800;50.118;9.900;2023-06-14T06:24:51;7.00;;;2.72;;
17365;SDS011;8800;50.118;9.900;2023-06-14T06:27:18;5.97;;;2.50;;
17365;SDS011;8800;50.118;9.900;2023-06-14T06:29:45;4.65;;;2.78;;
17365;SDS011;8800;50.118;9.900;2023-06-14T06:32:15;5.03;;;2.60;;
17365;SDS011;8800;50.118;9.900;2023-06-14T06:34:41;5.38;;;2.53;;
17365;SDS011;8800;50.118;9.900;2023-06-14T06:37:07;5.05;;;2.72;;
17365;SDS011;8800;50.118;9.900;2023-06-14T06:39:34;6.95;;;2.80;;
17365;SDS011;8800;50.118;9.900;2023-06-14T06:42:01;4.78;;;3.22;;
17365;SDS011;8800;50.118;9.900;2023-06-14T06:44:28;9.88;;;2.92;;
17365;SDS011;8800;50.118;9.900;2023-06-14T06:46:54;4.97;;;2.80;;
17365;SDS011;8800;50.118;9.900;2023-06-14T06:49:24;4.88;;;2.60;;
17365;SDS011;8800;50.118;9.900;2023-06-14T06:52:00;6.25;;;2.80;;
17365;SDS011;8800;50.118;9.900;2023-06-14T06:54:28;5.35;;;2.58;;
17365;SDS011;8800;50.118;9.900;2023-06-14T06:56:54;4.47;;;2.70;;
17365;SDS011;8800;50.118;9.900;2023-06-14T06:59:20;4.15;;;2.75;;
17365;SDS011;8800;50.118;9.900;2023-06-14T07:01:47;5.78;;;2.92;;
17365;SDS011;8800;50.118;9.900;2023-06-14T07:04:14;8.43;;;3.42;;
17365;SDS011;8800;50.118;9.900;2023-06-14T07:06:42;5.30;;;2.83;;
17365;SDS011;8800;50.118;9.900;2023-06-14T07:09:09;5.60;;;2.65;;
17365;SDS011;8800;50.118;9.900;2023-06-14T07:11:38;8.20;;;2.95;;
17365;SDS011;8800;50.118;9.900;2023-06-14T07:14:04;4.63;;;2.63;;
17365;SDS011;8800;50.118;9.900;2023-06-14T07:16:31;4.57;;;2.90;;
17365;SDS011;8800;50.118;9.900;2023-06-14T07:18:57;5.18;;;3.00;;
17365;SDS011;8800;50.118;9.900;2023-06-14T07:21:24;3.85;;;2.78;;
17365;SDS011;8800;50.118;9.900;2023-06-14T07:23:52;5.97;;;2.95;;
17365;SDS011;8800;50.118;9.900;2023-06-14T07:26:19;6.35;;;2.90;;
17365;SDS011;8800;50.118;9.900;2023-06-14T07:28:45;3.92;;;2.58;;
17365;SDS011;8800;50.118;9.900;2023-06-14T07:31:12;7.88;;;3.08;;
17365;SDS011;8800;50.118;9.900;2023-06-14T07:33:39;3.17;;;2.75;;
17365;SDS011;8800;50.118;9.900;2023-06-14T07:36:06;5.03;;;3.42;;
17365;SDS011;8800;50.118;9.900;2023-06-14T07:38:32;4.43;;;3.15;;
17365;SDS011;8800;50.118;9.900;2023-06-14T07:41:00;4.35;;;2.88;;
17365;SDS011;8800;50.118;9.900;2023-06-14T07:43:27;5.05;;;3.03;;
17365;SDS011;8800;50.118;9.900;2023-06-14T07:45:53;6.75;;;3.20;;
17365;SDS011;8800;50.118;9.900;2023-06-14T07:48:20;5.28;;;2.80;;
17365;SDS011;8800;50.118;9.900;2023-06-14T07:50:46;4.63;;;2.72;;
17365;SDS011;8800;50.118;9.900;2023-06-14T07:53:13;5.60;;;2.63;;
17365;SDS011;8800;50.118;9.900;2023-06-14T07:55:39;7.40;;;2.70;;
17365;SDS011;8800;50.118;9.900;2023-06-14T07:58:09;3.95;;;2.95;;
17365;SDS011;8800;50.118;9.900;2023-06-14T08:00:36;4.72;;;2.60;;
17365;SDS011;8800;50.118;9.900;2023-06-14T08:03:03;4.35;;;2.80;;
17365;SDS011;8800;50.118;9.900;2023-06-14T08:05:29;7.45;;;3.00;;
17365;SDS011;8800;50.118;9.900;2023-06-14T08:07:56;6.30;;;2.97;;
17365;SDS011;8800;50.118;9.900;2023-06-14T08:10:22;4.47;;;2.88;;
17365;SDS011;8800;50.118;9.900;2023-06-14T08:12:49;6.22;;;2.70;;
17365;SDS011;8800;50.118;9.900;2023-06-14T08:15:18;5.05;;;2.78;;
17365;SDS011;8800;50.118;9.900;2023-06-14T08:17:44;5.38;;;2.72;;
17365;SDS011;8800;50.118;9.900;2023-06-14T08:20:11;5.60;;;2.85;;
17365;SDS011;8800;50.118;9.900;2023-06-14T08:22:39;5.15;;;3.08;;
17365;SDS011;8800;50.118;9.900;2023-06-14T08:25:07;6.05;;;2.65;;
17365;SDS011;8800;50.118;9.900;2023-06-14T08:27:34;5.00;;;2.85;;
17365;SDS011;8800;50.118;9.900;2023-06-14T08:30:01;7.10;;;2.88;;
17365;SDS011;8800;50.118;9.900;2023-06-14T08:32:29;3.17;;;2.70;;
17365;SDS011;8800;50.118;9.900;2023-06-14T08:34:55;4.95;;;2.67;;
17365;SDS011;8800;50.118;9.900;2023-06-14T08:37:22;5.63;;;2.50;;
17365;SDS011;8800;50.118;9.900;2023-06-14T08:39:49;6.57;;;3.00;;
17365;SDS011;8800;50.118;9.900;2023-06-14T08:42:16;7.55;;;2.90;;
17365;SDS011;8800;50.118;9.900;2023-06-14T08:44:43;4.40;;;2.55;;
17365;SDS011;8800;50.118;9.900;2023-06-14T08:47:10;4.78;;;2.33;;
17365;SDS011;8800;50.118;9.900;2023-06-14T08:49:39;4.28;;;2.22;;
17365;SDS011;8800;50.118;9.900;2023-06-14T08:52:08;8.38;;;2.60;;
17365;SDS011;8800;50.118;9.900;2023-06-14T08:54:38;4.53;;;2.58;;
17365;SDS011;8800;50.118;9.900;2023-06-14T08:57:09;4.45;;;2.60;;
17365;SDS011;8800;50.118;9.900;2023-06-14T08:59:37;6.05;;;2.58;;
17365;SDS011;8800;50.118;9.900;2023-06-14T09:02:08;3.95;;;2.60;;
17365;SDS011;8800;50.118;9.900;2023-06-14T09:04:39;6.00;;;2.55;;
17365;SDS011;8800;50.118;9.900;2023-06-14T09:07:06;4.03;;;2.40;;
17365;SDS011;8800;50.118;9.900;2023-06-14T09:09:38;3.05;;;2.30;;
17365;SDS011;8800;50.118;9.900;2023-06-14T09:12:06;6.35;;;2.50;;
17365;SDS011;8800;50.118;9.900;2023-06-14T09:14:36;4.55;;;2.00;;
17365;SDS011;8800;50.118;9.900;2023-06-14T09:17:07;4.70;;;2.20;;
17365;SDS011;8800;50.118;9.900;2023-06-14T09:19:33;5.35;;;2.42;;
17365;SDS011;8800;50.118;9.900;2023-06-14T09:22:02;4.78;;;2.22;;
17365;SDS011;8800;50.118;9.900;2023-06-14T09:24:29;6.30;;;2.35;;
17365;SDS011;8800;50.118;9.900;2023-06-14T09:26:56;3.88;;;2.08;;
17365;SDS011;8800;50.118;9.900;2023-06-14T09:29:23;6.25;;;2.35;;
17365;SDS011;8800;50.118;9.900;2023-06-14T09:31:51;4.43;;;2.00;;
17365;SDS011;8800;50.118;9.900;2023-06-14T09:34:18;4.20;;;2.13;;
17365;SDS011;8800;50.118;9.900;2023-06-14T09:36:48;4.47;;;2.30;;
17365;SDS011;8800;50.118;9.900;2023-06-14T09:39:17;2.78;;;2.03;;
17365;SDS011;8800;50.118;9.900;2023-06-14T09:41:44;3.45;;;2.22;;
17365;SDS011;8800;50.118;9.900;2023-06-14T09:44:11;2.80;;;1.90;;
17365;SDS011;8800;50.118;9.900;2023-06-14T09:46:38;4.10;;;2.05;;
17365;SDS011;8800;50.118;9.900;2023-06-14T09:49:05;2.88;;;2.00;;
17365;SDS011;8800;50.118;9.900;2023-06-14T09:51:32;2.50;;;2.10;;
17365;SDS011;8800;50.118;9.900;2023-06-14T09:53:59;4.43;;;2.05;;
17365;SDS011;8800;50.118;9.900;2023-06-14T09:56:28;2.50;;;2.00;;
17365;SDS011;8800;50.118;9.900;2023-06-14T09:58:56;6.22;;;1.92;;
17365;SDS011;8800;50.118;9.900;2023-06-14T10:01:23;4.20;;;1.60;;
17365;SDS011;8800;50.118;9.900;2023-06-14T10:03:50;5.53;;;1.80;;
17365;SDS011;8800;50.118;9.900;2023-06-14T10:06:22;2.28;;;1.70;;
17365;SDS011;8800;50.118;9.900;2023-06-14T10:08:50;3.58;;;1.70;;
17365;SDS011;8800;50.118;9.900;2023-06-14T10:11:17;1.58;;;1.40;;
17365;SDS011;8800;50.118;9.900;2023-06-14T10:13:45;3.10;;;1.83;;
17365;SDS011;8800;50.118;9.900;2023-06-14T10:16:12;2.92;;;1.50;;
17365;SDS011;8800;50.118;9.900;2023-06-14T10:18:42;3.45;;;1.73;;
17365;SDS011;8800;50.118;9.900;2023-06-14T10:21:13;3.60;;;1.65;;
17365;SDS011;8800;50.118;9.900;2023-06-14T10:23:42;2.22;;;1.55;;
17365;SDS011;8800;50.118;9.900;2023-06-14T10:26:17;2.60;;;1.40;;
17365;SDS011;8800;50.118;9.900;2023-06-14T10:28:45;3.97;;;1.50;;
17365;SDS011;8800;50.118;9.900;2023-06-14T10:31:21;2.13;;;1.70;;
17365;SDS011;8800;50.118;9.900;2023-06-14T10:33:52;2.65;;;1.48;;
17365;SDS011;8800;50.118;9.900;2023-06-14T10:36:25;1.67;;;1.50;;
17365;SDS011;8800;50.118;9.900;2023-06-14T10:38:58;2.83;;;1.63;;
17365;SDS011;8800;50.118;9.900;2023-06-14T10:41:25;2.50;;;1.50;;
17365;SDS011;8800;50.118;9.900;2023-06-14T10:46:36;2.47;;;1.63;;
17365;SDS011;8800;50.118;9.900;2023-06-14T10:49:02;1.60;;;1.50;;
17365;SDS011;8800;50.118;9.900;2023-06-14T10:51:31;2.35;;;1.60;;
17365;SDS011;8800;50.118;9.900;2023-06-14T10:54:11;3.63;;;1.80;;
17365;SDS011;8800;50.118;9.900;2023-06-14T10:56:38;3.83;;;1.73;;
17365;SDS011;8800;50.118;9.900;2023-06-14T10:59:12;2.00;;;1.63;;
17365;SDS011;8800;50.118;9.900;2023-06-14T11:01:40;3.33;;;1.55;;
17365;SDS011;8800;50.118;9.900;2023-06-14T11:04:09;2.45;;;1.52;;
17365;SDS011;8800;50.118;9.900;2023-06-14T11:06:44;5.15;;;1.67;;
17365;SDS011;8800;50.118;9.900;2023-06-14T11:11:59;2.05;;;1.63;;
17365;SDS011;8800;50.118;9.900;2023-06-14T11:14:29;2.08;;;1.60;;
17365;SDS011;8800;50.118;9.900;2023-06-14T11:16:57;3.00;;;1.83;;
17365;SDS011;8800;50.118;9.900;2023-06-14T11:19:23;3.58;;;1.75;;
17365;SDS011;8800;50.118;9.900;2023-06-14T11:21:53;2.28;;;1.38;;
17365;SDS011;8800;50.118;9.900;2023-06-14T11:24:20;3.95;;;1.70;;
17365;SDS011;8800;50.118;9.900;2023-06-14T11:26:47;2.17;;;1.67;;
17365;SDS011;8800;50.118;9.900;2023-06-14T11:29:15;1.92;;;1.38;;
17365;SDS011;8800;50.118;9.900;2023-06-14T11:31:43;1.80;;;1.63;;
17365;SDS011;8800;50.118;9.900;2023-06-14T11:34:11;2.15;;;1.65;;
17365;SDS011;8800;50.118;9.900;2023-06-14T11:36:38;3.50;;;1.83;;
17365;SDS011;8800;50.118;9.900;2023-06-14T11:39:05;2.50;;;1.80;;
17365;SDS011;8800;50.118;9.900;2023-06-14T11:41:32;2.65;;;1.60;;
17365;SDS011;8800;50.118;9.900;2023-06-14T11:43:59;2.10;;;1.52;;
17365;SDS011;8800;50.118;9.900;2023-06-14T11:46:26;3.33;;;1.60;;
17365;SDS011;8800;50.118;9.900;2023-06-14T11:48:53;1.95;;;1.35;;
17365;SDS011;8800;50.118;9.900;2023-06-14T11:51:21;4.13;;;1.83;;
17365;SDS011;8800;50.118;9.900;2023-06-14T11:53:47;1.98;;;1.42;;
17365;SDS011;8800;50.118;9.900;2023-06-14T11:56:14;2.17;;;1.50;;
17365;SDS011;8800;50.118;9.900;2023-06-14T11:58:42;3.03;;;1.60;;
17365;SDS011;8800;50.118;9.900;2023-06-14T12:01:09;4.07;;;1.70;;
17365;SDS011;8800;50.118;9.900;2023-06-14T12:03:41;2.70;;;1.63;;
17365;SDS011;8800;50.118;9.900;2023-06-14T12:06:13;3.22;;;1.50;;
17365;SDS011;8800;50.118;9.900;2023-06-14T12:08:42;2.20;;;1.50;;
17365;SDS011;8800;50.118;9.900;2023-06-14T12:11:10;2.20;;;1.60;;
17365;SDS011;8800;50.118;9.900;2023-06-14T12:13:37;2.92;;;1.50;;
17365;SDS011;8800;50.118;9.900;2023-06-14T12:16:06;3.50;;;1.63;;
17365;SDS011;8800;50.118;9.900;2023-06-14T12:18:33;4.40;;;1.70;;
17365;SDS011;8800;50.118;9.900;2023-06-14T12:21:01;3.85;;;1.52;;
17365;SDS011;8800;50.118;9.900;2023-06-14T12:23:43;3.30;;;1.50;;
17365;SDS011;8800;50.118;9.900;2023-06-14T12:26:12;2.50;;;1.77;;
17365;SDS011;8800;50.118;9.900;2023-06-14T12:28:39;4.38;;;1.95;;
17365;SDS011;8800;50.118;9.900;2023-06-14T12:31:06;3.05;;;1.92;;
17365;SDS011;8800;50.118;9.900;2023-06-14T12:33:32;3.78;;;1.80;;
17365;SDS011;8800;50.118;9.900;2023-06-14T12:35:59;2.35;;;1.65;;
17365;SDS011;8800;50.118;9.900;2023-06-14T12:38:25;2.53;;;1.73;;
17365;SDS011;8800;50.118;9.900;2023-06-14T12:40:53;3.70;;;1.70;;
17365;SDS011;8800;50.118;9.900;2023-06-14T12:43:20;2.05;;;1.58;;
17365;SDS011;8800;50.118;9.900;2023-06-14T12:45:47;1.95;;;1.70;;
17365;SDS011;8800;50.118;9.900;2023-06-14T12:48:13;3.45;;;1.63;;
17365;SDS011;8800;50.118;9.900;2023-06-14T12:50:40;4.30;;;1.95;;
17365;SDS011;8800;50.118;9.900;2023-06-14T12:53:07;2.00;;;1.65;;
17365;SDS011;8800;50.118;9.900;2023-06-14T12:55:33;2.60;;;1.80;;
17365;SDS011;8800;50.118;9.900;2023-06-14T12:58:01;2.67;;;1.77;;
17365;SDS011;8800;50.118;9.900;2023-06-14T13:00:28;3.97;;;1.83;;
17365;SDS011;8800;50.118;9.900;2023-06-14T13:02:55;1.85;;;1.55;;
17365;SDS011;8800;50.118;9.900;2023-06-14T13:05:21;2.60;;;1.90;;
17365;SDS011;8800;50.118;9.900;2023-06-14T13:07:48;7.20;;;1.70;;
17365;SDS011;8800;50.118;9.900;2023-06-14T13:10:15;2.72;;;1.67;;
17365;SDS011;8800;50.118;9.900;2023-06-14T13:12:42;3.33;;;1.92;;
17365;SDS011;8800;50.118;9.900;2023-06-14T13:15:10;3.63;;;1.95;;
17365;SDS011;8800;50.118;9.900;2023-06-14T13:17:37;3.50;;;2.05;;
17365;SDS011;8800;50.118;9.900;2023-06-14T13:20:04;3.75;;;1.70;;
17365;SDS011;8800;50.118;9.900;2023-06-14T13:22:31;3.50;;;1.90;;
17365;SDS011;8800;50.118;9.900;2023-06-14T13:24:57;4.40;;;1.98;;
17365;SDS011;8800;50.118;9.900;2023-06-14T13:27:25;3.33;;;1.88;;
17365;SDS011;8800;50.118;9.900;2023-06-14T13:29:52;4.07;;;1.98;;
17365;SDS011;8800;50.118;9.900;2023-06-14T13:32:20;5.28;;;1.92;;
17365;SDS011;8800;50.118;9.900;2023-06-14T13:34:47;3.92;;;1.95;;
17365;SDS011;8800;50.118;9.900;2023-06-14T13:37:13;2.00;;;1.80;;
17365;SDS011;8800;50.118;9.900;2023-06-14T13:39:40;3.75;;;1.77;;
17365;SDS011;8800;50.118;9.900;2023-06-14T13:42:07;2.90;;;2.17;;
17365;SDS011;8800;50.118;9.900;2023-06-14T13:44:34;4.03;;;1.80;;
17365;SDS011;8800;50.118;9.900;2023-06-14T13:47:00;2.40;;;1.65;;
17365;SDS011;8800;50.118;9.900;2023-06-14T13:49:28;3.42;;;2.00;;
17365;SDS011;8800;50.118;9.900;2023-06-14T13:51:56;3.88;;;1.55;;
17365;SDS011;8800;50.118;9.900;2023-06-14T13:54:22;3.20;;;2.13;;
17365;SDS011;8800;50.118;9.900;2023-06-14T13:56:49;6.57;;;2.10;;
17365;SDS011;8800;50.118;9.900;2023-06-14T13:59:15;3.05;;;1.77;;
17365;SDS011;8800;50.118;9.900;2023-06-14T14:01:42;2.60;;;1.90;;
17365;SDS011;8800;50.118;9.900;2023-06-14T14:04:08;3.25;;;2.03;;
17365;SDS011;8800;50.118;9.900;2023-06-14T14:06:36;3.35;;;2.47;;
17365;SDS011;8800;50.118;9.900;2023-06-14T14:09:02;3.33;;;2.40;;
17365;SDS011;8800;50.118;9.900;2023-06-14T14:11:29;4.00;;;2.10;;
17365;SDS011;8800;50.118;9.900;2023-06-14T14:13:58;3.88;;;1.90;;
17365;SDS011;8800;50.118;9.900;2023-06-14T14:16:25;5.63;;;2.00;;
17365;SDS011;8800;50.118;9.900;2023-06-14T14:18:51;5.13;;;1.95;;
17365;SDS011;8800;50.118;9.900;2023-06-14T14:21:18;3.33;;;2.30;;
17365;SDS011;8800;50.118;9.900;2023-06-14T14:23:46;2.58;;;1.88;;
17365;SDS011;8800;50.118;9.900;2023-06-14T14:26:14;2.67;;;2.25;;
17365;SDS011;8800;50.118;9.900;2023-06-14T14:28:41;2.35;;;2.15;;
17365;SDS011;8800;50.118;9.900;2023-06-14T14:31:07;2.20;;;1.83;;
17365;SDS011;8800;50.118;9.900;2023-06-14T14:33:34;6.47;;;2.10;;
17365;SDS011;8800;50.118;9.900;2023-06-14T14:36:01;3.22;;;2.08;;
17365;SDS011;8800;50.118;9.900;2023-06-14T14:38:29;3.60;;;2.00;;
17365;SDS011;8800;50.118;9.900;2023-06-14T14:40:56;2.10;;;1.75;;
17365;SDS011;8800;50.118;9.900;2023-06-14T14:43:23;2.47;;;2.10;;
17365;SDS011;8800;50.118;9.900;2023-06-14T14:45:49;2.83;;;2.08;;
17365;SDS011;8800;50.118;9.900;2023-06-14T14:48:15;3.10;;;2.10;;
17365;SDS011;8800;50.118;9.900;2023-06-14T14:50:42;4.97;;;2.25;;
17365;SDS011;8800;50.118;9.900;2023-06-14T14:53:08;2.63;;;2.40;;
17365;SDS011;8800;50.118;9.900;2023-06-14T14:55:35;2.72;;;2.00;;
17365;SDS011;8800;50.118;9.900;2023-06-14T14:58:03;2.75;;;2.10;;
17365;SDS011;8800;50.118;9.900;2023-06-14T15:00:31;2.55;;;2.00;;
17365;SDS011;8800;50.118;9.900;2023-06-14T15:02:58;2.72;;;2.00;;
17365;SDS011;8800;50.118;9.900;2023-06-14T15:05:24;2.53;;;2.17;;
17365;SDS011;8800;50.118;9.900;2023-06-14T15:07:51;2.80;;;1.95;;